Time,TemperatureF,DewpointF,PressureIn,WindDirection,WindDirectionDegrees,WindSpeedMPH,WindSpeedGustMPH,Humidity,HourlyPrecipIn,Conditions,Clouds,dailyrainin,SoftwareType,DateUTC
2013-01-17 00:00:00,42.0,-99.9,-100.00,North,-999,-999.0,-999.0,-999,-99.99,,,0.00,,2013-01-17 08:00:00,
2013-01-17 00:53:00,42.0,-99.9,-100.00,North,-999,-999.0,-999.0,-999,-99.99,,,0.00,,2013-01-17 08:53:00,
2013-01-17 01:00:00,42.0,14.0,-100.00,South,182,1.0,2.0,31,-99.99,,,-99.99,,2013-01-17 09:00:00,
2013-01-17 01:52:00,42.0,14.0,-100.00,South,182,1.0,2.0,31,-99.99,,,-99.99,,2013-01-17 09:52:00,
2013-01-17 02:00:00,42.0,11.0,-100.00,South,187,2.0,3.0,27,-99.99,,,0.00,,2013-01-17 10:00:00,
2013-01-17 02:53:00,42.0,11.0,-100.00,South,187,2.0,3.0,27,-99.99,,,0.00,,2013-01-17 10:53:00,
2013-01-17 03:00:00,44.0,11.0,-100.00,SSE,161,3.0,4.0,26,-99.99,,,0.00,,2013-01-17 11:00:00,
2013-01-17 03:53:00,44.0,11.0,-100.00,SSE,161,3.0,4.0,26,-99.99,,,0.00,,2013-01-17 11:53:00,
2013-01-17 04:00:00,42.0,6.0,-100.00,SSW,200,1.0,4.0,22,-99.99,,,0.00,,2013-01-17 12:00:00,
2013-01-17 04:53:00,42.0,6.0,-100.00,SSW,200,1.0,4.0,22,-99.99,,,0.00,,2013-01-17 12:53:00,
2013-01-17 05:00:00,43.0,9.0,-100.00,South,175,1.0,3.0,24,-99.99,,,0.00,,2013-01-17 13:00:00,
2013-01-17 05:53:00,43.0,9.0,-100.00,South,175,1.0,3.0,24,-99.99,,,0.00,,2013-01-17 13:53:00,
2013-01-17 06:00:00,42.0,8.0,-100.00,ESE,102,0.0,1.0,24,-99.99,,,0.00,,2013-01-17 14:00:00,
2013-01-17 06:53:00,42.0,8.0,-100.00,ESE,102,0.0,1.0,24,-99.99,,,0.00,,2013-01-17 14:53:00,
2013-01-17 07:00:00,42.0,8.0,-100.00,ENE,77,1.0,2.0,24,-99.99,,,0.00,,2013-01-17 15:00:00,
2013-01-17 07:53:00,42.0,8.0,-100.00,ENE,77,1.0,2.0,24,-99.99,,,0.00,,2013-01-17 15:53:00,
2013-01-17 08:00:00,42.0,8.0,-100.00,East,79,0.0,2.0,24,-99.99,,,0.00,,2013-01-17 16:00:00,
2013-01-17 08:53:00,42.0,8.0,-100.00,East,79,0.0,2.0,24,-99.99,,,0.00,,2013-01-17 16:53:00,
2013-01-17 09:00:00,45.0,12.0,-100.00,SSE,158,1.0,2.0,26,-99.99,,,0.00,,2013-01-17 17:00:00,
2013-01-17 09:53:00,45.0,12.0,-100.00,SSE,158,1.0,2.0,26,-99.99,,,0.00,,2013-01-17 17:53:00,
2013-01-17 10:00:00,50.0,13.0,-100.00,ESE,108,1.0,2.0,23,-99.99,,,0.00,,2013-01-17 18:00:00,
2013-01-17 10:53:00,50.0,13.0,-100.00,ESE,108,1.0,2.0,23,-99.99,,,0.00,,2013-01-17 18:53:00,
2013-01-17 11:00:00,49.0,12.0,-100.00,SE,135,2.0,5.0,22,-99.99,,,0.00,,2013-01-17 19:00:00,
2013-01-17 11:53:00,49.0,12.0,-100.00,SE,135,2.0,5.0,22,-99.99,,,0.00,,2013-01-17 19:53:00,
2013-01-17 12:00:00,50.0,15.0,-100.00,ESE,103,4.0,7.0,25,-99.99,,,0.00,,2013-01-17 20:00:00,
2013-01-17 12:54:00,50.0,15.0,-100.00,ESE,103,4.0,7.0,25,-99.99,,,0.00,,2013-01-17 20:54:00,
2013-01-17 13:00:00,51.0,18.0,-100.00,SSE,157,4.0,8.0,27,-99.99,,,0.00,,2013-01-17 21:00:00,
2013-01-17 13:53:00,51.0,18.0,-100.00,SSE,157,4.0,8.0,27,-99.99,,,0.00,,2013-01-17 21:53:00,
2013-01-17 14:00:00,50.0,17.0,-100.00,North,-999,-999.0,-999.0,26,-99.99,,,0.00,,2013-01-17 22:00:00,
2013-01-17 14:53:00,50.0,17.0,-100.00,North,-999,-999.0,-999.0,26,-99.99,,,0.00,,2013-01-17 22:53:00,
2013-01-17 15:00:00,48.0,16.0,-100.00,South,173,6.0,10.0,28,-99.99,,,0.00,,2013-01-17 23:00:00,
2013-01-17 15:53:00,48.0,16.0,-100.00,South,173,6.0,10.0,28,-99.99,,,0.00,,2013-01-17 23:53:00,
2013-01-17 16:00:00,45.0,18.0,-100.00,SE,142,4.0,8.0,33,-99.99,,,-99.99,,2013-01-18 00:00:00,
2013-01-17 16:53:00,45.0,18.0,-100.00,SE,142,4.0,8.0,33,-99.99,,,-99.99,,2013-01-18 00:53:00,
2013-01-17 17:00:00,44.0,20.0,-100.00,SSE,156,5.0,8.0,38,-99.99,,,0.00,,2013-01-18 01:00:00,
2013-01-17 17:53:00,44.0,20.0,-100.00,SSE,156,5.0,8.0,38,-99.99,,,0.00,,2013-01-18 01:53:00,
2013-01-17 18:00:00,45.0,18.0,-100.00,SSW,194,7.0,9.0,34,-99.99,,,-99.99,,2013-01-18 02:00:00,
2013-01-17 18:53:00,45.0,18.0,-100.00,SSW,194,7.0,9.0,34,-99.99,,,-99.99,,2013-01-18 02:53:00,
2013-01-17 19:00:00,45.0,19.0,-100.00,SSW,192,7.0,9.0,35,-99.99,,,0.00,,2013-01-18 03:00:00,
2013-01-17 19:53:00,45.0,19.0,-100.00,SSW,192,7.0,9.0,35,-99.99,,,0.00,,2013-01-18 03:53:00,
2013-01-17 20:00:00,43.0,18.0,-100.00,SSE,165,7.0,9.0,35,-99.99,,,0.00,,2013-01-18 04:00:00,
2013-01-17 20:53:00,43.0,18.0,-100.00,SSE,165,7.0,9.0,35,-99.99,,,0.00,,2013-01-18 04:53:00,
2013-01-17 21:00:00,44.0,15.0,-100.00,South,175,6.0,8.0,31,-99.99,,,0.00,,2013-01-18 05:00:00,
2013-01-17 21:53:00,44.0,15.0,-100.00,South,175,6.0,8.0,31,-99.99,,,0.00,,2013-01-18 05:53:00,
2013-01-17 22:00:00,44.0,8.0,-100.00,SE,133,7.0,9.0,22,-99.99,,,0.00,,2013-01-18 06:00:00,
2013-01-17 22:52:00,44.0,8.0,-100.00,SE,133,7.0,9.0,22,-99.99,,,0.00,,2013-01-18 06:52:00,
2013-01-17 23:00:00,45.0,3.0,-100.00,South,176,8.0,10.0,17,-99.99,,,0.00,,2013-01-18 07:00:00,
2013-01-17 23:52:00,45.0,3.0,-100.00,South,176,8.0,10.0,17,-99.99,,,0.00,,2013-01-18 07:52:00,